Time;durP1;ratioP1;P1;durP2;ratioP2;P2;SDS_P1;SDS_P2;PMS_P1;PMS_P2;Temp;Humidity;BMP_temperature;BMP_pressure;BME280_temperature;BME280_humidity;BME280_pressure;Samples;Min_cycle;Max_cycle;Signal;HPM_P1;HPM_P2
2022/07/08 00:01:58;;;;;;;0.00;0.00;;;;;;;;;;5029807;28;20240;-78
2022/07/08 00:04:25;;;;;;;0.00;0.00;;;;;;;;;;5028151;28;20511;-78
2022/07/08 00:06:52;;;;;;;0.10;0.10;;;;;;;;;;5029860;28;20423;-77
2022/07/08 00:09:19;;;;;;;0.10;0.10;;;;;;;;;;5027990;28;20404;-79
2022/07/08 00:11:46;;;;;;;0.10;0.10;;;;;;;;;;5028976;28;20291;-78
2022/07/08 00:14:12;;;;;;;0.05;0.05;;;;;;;;;;5028854;28;20207;-77
2022/07/08 00:16:40;;;;;;;0.10;0.10;;;;;;;;;;5027802;28;20247;-78
2022/07/08 00:19:06;;;;;;;0.00;0.00;;;;;;;;;;5029564;28;20422;-77
2022/07/08 00:21:33;;;;;;;0.10;0.10;;;;;;;;;;5027067;28;20489;-78
2022/07/08 00:23:59;;;;;;;0.10;0.10;;;;;;;;;;5030496;28;20396;-77
2022/07/08 00:26:27;;;;;;;0.00;0.00;;;;;;;;;;5025781;28;20243;-78
2022/07/08 00:28:53;;;;;;;0.00;0.00;;;;;;;;;;5031372;28;20254;-77
2022/07/08 00:31:20;;;;;;;0.10;0.10;;;;;;;;;;5025341;28;20243;-78
2022/07/08 00:33:46;;;;;;;0.10;0.10;;;;;;;;;;5031570;28;20274;-78
2022/07/08 00:36:12;;;;;;;0.00;0.00;;;;;;;;;;5024162;28;20390;-78
2022/07/08 00:38:39;;;;;;;0.07;0.07;;;;;;;;;;5032608;28;20204;-77
2022/07/08 00:41:05;;;;;;;0.10;0.10;;;;;;;;;;5023210;28;20246;-77
2022/07/08 00:43:36;;;;;;;0.00;0.00;;;;;;;;;;5033364;28;20236;-78
2022/07/08 00:46:02;;;;;;;0.10;0.10;;;;;;;;;;5022676;28;20287;-77
2022/07/08 00:48:28;;;;;;;0.10;0.10;;;;;;;;;;5033402;28;20232;-80
2022/07/08 00:50:55;;;;;;;0.10;0.10;;;;;;;;;;5021372;28;20243;-77
2022/07/08 00:53:22;;;;;;;0.10;0.10;;;;;;;;;;5034555;28;20282;-77
2022/07/08 00:55:48;;;;;;;0.10;0.10;;;;;;;;;;5020692;28;20267;-78
2022/07/08 00:58:15;;;;;;;0.10;0.10;;;;;;;;;;5035135;28;20208;-78
2022/07/08 01:00:43;;;;;;;0.00;0.00;;;;;;;;;;5019922;28;20457;-78
2022/07/08 01:03:10;;;;;;;0.10;0.10;;;;;;;;;;5036047;28;20213;-78
2022/07/08 01:05:36;;;;;;;0.10;0.10;;;;;;;;;;5019371;28;20494;-78
2022/07/08 01:08:03;;;;;;;0.10;0.10;;;;;;;;;;5036623;28;20275;-78
2022/07/08 01:10:29;;;;;;;0.10;0.10;;;;;;;;;;5018251;28;20242;-78
2022/07/08 01:12:56;;;;;;;0.00;0.00;;;;;;;;;;5037374;28;20236;-79
2022/07/08 01:15:23;;;;;;;0.10;0.10;;;;;;;;;;5017081;28;20281;-78
2022/07/08 01:17:50;;;;;;;0.10;0.10;;;;;;;;;;5037680;28;20570;-79
2022/07/08 01:20:17;;;;;;;0.10;0.10;;;;;;;;;;5016349;28;20278;-79
2022/07/08 01:22:45;;;;;;;0.10;0.10;;;;;;;;;;5038839;28;20388;-78
2022/07/08 01:25:11;;;;;;;0.10;0.10;;;;;;;;;;5015189;28;20223;-78
2022/07/08 01:27:37;;;;;;;0.10;0.10;;;;;;;;;;5039598;28;20197;-78
2022/07/08 01:30:04;;;;;;;0.03;0.03;;;;;;;;;;5024619;28;20246;-79
2022/07/08 01:32:32;;;;;;;0.10;0.10;;;;;;;;;;5013424;28;20287;-79
2022/07/08 01:34:58;;;;;;;0.10;0.10;;;;;;;;;;5024461;28;20277;-79
2022/07/08 01:37:25;;;;;;;0.10;0.10;;;;;;;;;;5029835;28;20249;-78
2022/07/08 01:39:53;;;;;;;0.10;0.10;;;;;;;;;;5024814;28;20275;-77
2022/07/08 01:42:19;;;;;;;0.00;0.00;;;;;;;;;;5029730;28;20243;-77
2022/07/08 01:44:46;;;;;;;0.00;0.00;;;;;;;;;;5024455;28;20277;-78
2022/07/08 01:47:12;;;;;;;0.10;0.10;;;;;;;;;;5029800;28;20285;-78
2022/07/08 01:49:38;;;;;;;0.10;0.10;;;;;;;;;;5024556;28;20390;-79
2022/07/08 01:52:05;;;;;;;0.10;0.10;;;;;;;;;;5029630;28;20250;-77
2022/07/08 01:54:32;;;;;;;0.10;0.10;;;;;;;;;;5024566;28;20205;-78
2022/07/08 01:59:54;;;;;;;0.10;0.10;;;;;;;;;;5100769;28;20601;-79
2022/07/08 02:02:20;;;;;;;0.00;0.00;;;;;;;;;;5067964;28;20242;-77
2022/07/08 02:04:47;;;;;;;0.00;0.00;;;;;;;;;;5060432;28;20192;-79
2022/07/08 02:07:15;;;;;;;0.10;0.10;;;;;;;;;;5065417;28;20430;-79
2022/07/08 02:09:42;;;;;;;0.10;0.10;;;;;;;;;;5060358;28;20440;-79
2022/07/08 02:12:20;;;;;;;0.10;0.10;;;;;;;;;;5064886;28;20241;-77
2022/07/08 02:14:47;;;;;;;0.03;0.03;;;;;;;;;;5059750;28;20450;-79
2022/07/08 02:17:15;;;;;;;0.10;0.10;;;;;;;;;;5064889;28;20258;-79
2022/07/08 02:19:41;;;;;;;0.00;0.00;;;;;;;;;;5060100;28;20334;-79
2022/07/08 02:22:08;;;;;;;0.00;0.00;;;;;;;;;;5065058;28;20250;-78
2022/07/08 02:24:35;;;;;;;0.10;0.10;;;;;;;;;;5060101;28;20238;-78
2022/07/08 02:27:01;;;;;;;0.10;0.10;;;;;;;;;;5064516;28;20257;-79
2022/07/08 02:29:27;;;;;;;0.10;0.10;;;;;;;;;;5060468;28;20274;-78
2022/07/08 02:31:54;;;;;;;0.10;0.10;;;;;;;;;;5063400;28;20381;-79
2022/07/08 02:34:21;;;;;;;0.10;0.10;;;;;;;;;;5061363;28;20212;-78
2022/07/08 02:36:48;;;;;;;0.10;0.10;;;;;;;;;;5062673;28;20310;-78
2022/07/08 02:39:14;;;;;;;0.10;0.10;;;;;;;;;;5061921;28;20250;-79
2022/07/08 02:41:41;;;;;;;0.10;0.10;;;;;;;;;;5061749;28;20249;-79
2022/07/08 02:44:07;;;;;;;0.10;0.10;;;;;;;;;;5062682;28;20397;-78
2022/07/08 02:46:34;;;;;;;0.10;0.10;;;;;;;;;;5060574;28;20305;-78
2022/07/08 02:49:00;;;;;;;0.03;0.03;;;;;;;;;;5063652;28;20516;-79
2022/07/08 02:51:28;;;;;;;0.10;0.10;;;;;;;;;;5059348;28;20245;-79
2022/07/08 02:53:54;;;;;;;0.03;0.03;;;;;;;;;;5064568;28;20233;-79
2022/07/08 02:56:20;;;;;;;0.10;0.10;;;;;;;;;;5058777;28;20262;-79
2022/07/08 02:58:47;;;;;;;0.10;0.10;;;;;;;;;;5064787;28;20260;-78
2022/07/08 03:01:13;;;;;;;0.10;0.10;;;;;;;;;;5057614;28;20244;-80
2022/07/08 03:03:40;;;;;;;0.10;0.10;;;;;;;;;;5065757;28;20278;-78
2022/07/08 03:06:06;;;;;;;0.10;0.10;;;;;;;;;;5056903;28;20246;-79
2022/07/08 03:08:34;;;;;;;0.00;0.00;;;;;;;;;;5066559;28;20436;-78
2022/07/08 03:11:00;;;;;;;0.10;0.10;;;;;;;;;;5043902;28;20295;-79
2022/07/08 03:13:26;;;;;;;0.03;0.03;;;;;;;;;;5054192;28;20445;-77
2022/07/08 03:15:53;;;;;;;0.03;0.03;;;;;;;;;;5041646;28;20311;-78
2022/07/08 03:18:19;;;;;;;0.10;0.10;;;;;;;;;;5054411;28;20523;-78
2022/07/08 03:20:45;;;;;;;0.10;0.10;;;;;;;;;;5040409;28;20258;-79
2022/07/08 03:23:13;;;;;;;0.10;0.10;;;;;;;;;;5055809;28;20218;-80
2022/07/08 03:25:40;;;;;;;0.10;0.10;;;;;;;;;;5039824;28;20239;-69
2022/07/08 03:28:07;;;;;;;0.10;0.10;;;;;;;;;;5056113;28;20279;-69
2022/07/08 03:30:33;;;;;;;0.10;0.10;;;;;;;;;;5038525;28;20313;-70
2022/07/08 03:32:59;;;;;;;0.10;0.10;;;;;;;;;;5057132;28;20302;-70
2022/07/08 03:35:26;;;;;;;0.10;0.10;;;;;;;;;;5037937;28;20237;-69
2022/07/08 03:37:52;;;;;;;0.10;0.10;;;;;;;;;;5057845;28;20208;-69
2022/07/08 03:43:04;;;;;;;0.10;0.10;;;;;;;;;;5056251;28;20199;-76
2022/07/08 03:45:30;;;;;;;0.10;0.10;;;;;;;;;;5038086;28;20242;-77
2022/07/08 03:47:57;;;;;;;0.10;0.10;;;;;;;;;;5056900;28;20210;-75
2022/07/08 03:50:23;;;;;;;0.10;0.10;;;;;;;;;;5036943;28;20207;-76
2022/07/08 03:52:50;;;;;;;0.10;0.10;;;;;;;;;;5058160;28;20213;-76
2022/07/08 03:55:16;;;;;;;0.10;0.10;;;;;;;;;;5035770;28;20204;-77
2022/07/08 03:57:42;;;;;;;0.10;0.10;;;;;;;;;;5058534;28;20206;-76
2022/07/08 04:00:11;;;;;;;0.10;0.10;;;;;;;;;;5044437;28;20223;-76
2022/07/08 04:02:37;;;;;;;0.10;0.10;;;;;;;;;;5032808;28;20218;-76
2022/07/08 04:05:04;;;;;;;0.10;0.10;;;;;;;;;;5044255;28;20239;-77
2022/07/08 04:07:30;;;;;;;0.10;0.10;;;;;;;;;;5049313;28;20531;-78
2022/07/08 04:09:57;;;;;;;0.10;0.10;;;;;;;;;;5044388;28;20207;-76
2022/07/08 04:12:23;;;;;;;0.10;0.10;;;;;;;;;;5049696;28;20451;-76
2022/07/08 04:14:50;;;;;;;0.10;0.10;;;;;;;;;;5044409;28;20210;-77
2022/07/08 04:17:18;;;;;;;0.00;0.00;;;;;;;;;;5049742;28;20249;-77
2022/07/08 04:19:44;;;;;;;0.03;0.03;;;;;;;;;;5044616;28;20601;-77
2022/07/08 04:22:10;;;;;;;0.10;0.10;;;;;;;;;;5048330;28;20315;-77
2022/07/08 04:24:37;;;;;;;0.07;0.07;;;;;;;;;;5044490;28;20205;-77
2022/07/08 04:27:03;;;;;;;0.10;0.10;;;;;;;;;;5049218;28;20430;-77
2022/07/08 04:29:29;;;;;;;0.10;0.10;;;;;;;;;;5044711;28;20201;-77
2022/07/08 04:31:56;;;;;;;0.10;0.10;;;;;;;;;;5048176;28;20299;-75
2022/07/08 04:34:23;;;;;;;0.07;0.07;;;;;;;;;;5045044;28;20211;-77
2022/07/08 04:36:50;;;;;;;0.10;0.10;;;;;;;;;;5047477;28;20265;-77
2022/07/08 04:39:16;;;;;;;0.10;0.10;;;;;;;;;;5046032;28;20281;-76
2022/07/08 04:41:43;;;;;;;0.10;0.10;;;;;;;;;;5046227;28;20243;-77
2022/07/08 04:44:09;;;;;;;0.10;0.10;;;;;;;;;;5047030;28;20206;-77
2022/07/08 04:46:36;;;;;;;0.00;0.00;;;;;;;;;;5045368;28;20659;-75
2022/07/08 04:49:02;;;;;;;0.00;0.00;;;;;;;;;;5047203;28;20215;-75
2022/07/08 04:51:30;;;;;;;0.10;0.10;;;;;;;;;;5044103;28;20249;-78
2022/07/08 04:53:56;;;;;;;0.10;0.10;;;;;;;;;;5048551;28;20218;-76
2022/07/08 04:56:23;;;;;;;0.00;0.00;;;;;;;;;;5043576;28;20469;-77
2022/07/08 04:58:49;;;;;;;0.00;0.00;;;;;;;;;;5048685;28;20232;-78
2022/07/08 05:01:17;;;;;;;0.10;0.10;;;;;;;;;;5042358;28;20313;-77
2022/07/08 05:03:44;;;;;;;0.10;0.10;;;;;;;;;;5049617;28;20205;-77
2022/07/08 05:06:10;;;;;;;0.00;0.00;;;;;;;;;;5041647;28;20305;-78
2022/07/08 05:08:38;;;;;;;0.10;0.10;;;;;;;;;;5050537;28;20377;-79
2022/07/08 05:11:04;;;;;;;0.10;0.10;;;;;;;;;;5040527;28;20251;-78
2022/07/08 05:13:31;;;;;;;0.03;0.03;;;;;;;;;;5050600;28;20397;-78
2022/07/08 05:15:57;;;;;;;0.10;0.10;;;;;;;;;;5039901;28;20243;-77
2022/07/08 05:18:23;;;;;;;0.03;0.03;;;;;;;;;;5052007;28;20230;-76
2022/07/08 05:20:50;;;;;;;0.10;0.10;;;;;;;;;;5038755;28;20266;-77
2022/07/08 05:23:16;;;;;;;0.10;0.10;;;;;;;;;;5053104;28;20205;-79
2022/07/08 05:25:44;;;;;;;0.10;0.10;;;;;;;;;;5037882;28;20431;-77
2022/07/08 05:28:10;;;;;;;0.10;0.10;;;;;;;;;;5053805;28;20208;-77
2022/07/08 05:30:36;;;;;;;0.10;0.10;;;;;;;;;;5037057;28;20240;-76
2022/07/08 05:33:03;;;;;;;0.10;0.10;;;;;;;;;;5054019;28;20272;-77
2022/07/08 05:35:29;;;;;;;0.10;0.10;;;;;;;;;;5036016;28;20521;-77
2022/07/08 05:37:56;;;;;;;0.10;0.10;;;;;;;;;;5055414;28;20360;-77
2022/07/08 05:40:22;;;;;;;0.03;0.03;;;;;;;;;;5035171;28;20252;-77
2022/07/08 05:42:50;;;;;;;0.10;0.10;;;;;;;;;;5056056;28;20270;-77
2022/07/08 05:45:16;;;;;;;0.03;0.03;;;;;;;;;;5033776;28;20211;-76
2022/07/08 05:47:42;;;;;;;0.03;0.03;;;;;;;;;;5056832;28;20209;-77
2022/07/08 05:50:09;;;;;;;0.10;0.10;;;;;;;;;;5033272;28;20218;-76
2022/07/08 05:52:35;;;;;;;0.08;0.08;;;;;;;;;;5057397;28;20223;-76
2022/07/08 05:55:02;;;;;;;0.10;0.10;;;;;;;;;;5042510;28;20280;-78
2022/07/08 05:57:28;;;;;;;0.10;0.10;;;;;;;;;;5047680;28;20516;-76
2022/07/08 05:59:56;;;;;;;0.00;0.00;;;;;;;;;;5042554;28;20269;-76
2022/07/08 06:02:22;;;;;;;0.10;0.10;;;;;;;;;;5048071;28;20304;-76
2022/07/08 06:04:48;;;;;;;0.10;0.10;;;;;;;;;;5042922;28;20219;-76
2022/07/08 06:07:15;;;;;;;0.10;0.10;;;;;;;;;;5047893;28;20299;-77
2022/07/08 06:09:41;;;;;;;0.10;0.10;;;;;;;;;;5043025;28;20239;-77
2022/07/08 06:12:08;;;;;;;0.10;0.10;;;;;;;;;;5047369;28;20290;-77
2022/07/08 06:14:34;;;;;;;0.10;0.10;;;;;;;;;;5042856;28;20458;-77
2022/07/08 06:17:02;;;;;;;0.10;0.10;;;;;;;;;;5046929;28;20419;-77
2022/07/08 06:19:28;;;;;;;0.10;0.10;;;;;;;;;;5042692;28;20235;-77
2022/07/08 06:21:55;;;;;;;0.10;0.10;;;;;;;;;;5046372;28;20242;-77
2022/07/08 06:24:21;;;;;;;0.03;0.03;;;;;;;;;;5044072;28;20222;-77
2022/07/08 06:26:47;;;;;;;0.00;0.00;;;;;;;;;;5045169;28;20240;-77
2022/07/08 06:29:14;;;;;;;0.10;0.10;;;;;;;;;;5044558;28;20207;-76
2022/07/08 06:31:40;;;;;;;0.10;0.10;;;;;;;;;;5044243;28;20243;-75
2022/07/08 06:34:09;;;;;;;0.00;0.00;;;;;;;;;;5045799;28;20246;-74
2022/07/08 06:36:36;;;;;;;0.03;0.03;;;;;;;;;;5043741;28;20354;-76
2022/07/08 06:39:03;;;;;;;0.00;0.00;;;;;;;;;;5046236;28;20389;-73
2022/07/08 06:41:30;;;;;;;0.10;0.10;;;;;;;;;;5043049;28;20622;-75
2022/07/08 06:43:56;;;;;;;0.03;0.03;;;;;;;;;;5046911;28;20443;-73
2022/07/08 06:46:22;;;;;;;0.03;0.03;;;;;;;;;;5045300;28;20495;-73
2022/07/08 06:48:49;;;;;;;0.10;0.10;;;;;;;;;;5051561;28;20213;-76
2022/07/08 06:51:16;;;;;;;0.10;0.10;;;;;;;;;;5044951;28;20240;-73
2022/07/08 06:56:27;;;;;;;0.10;0.10;;;;;;;;;;5045446;28;20284;-74
2022/07/08 06:58:53;;;;;;;0.10;0.10;;;;;;;;;;5051114;28;20225;-74
2022/07/08 07:01:19;;;;;;;0.10;0.10;;;;;;;;;;5045368;28;20378;-72
2022/07/08 07:03:46;;;;;;;0.10;0.10;;;;;;;;;;5051532;28;20208;-74
2022/07/08 07:06:13;;;;;;;0.10;0.10;;;;;;;;;;5044233;28;20259;-74
2022/07/08 07:08:41;;;;;;;0.10;0.10;;;;;;;;;;5052026;28;20239;-74
2022/07/08 07:11:07;;;;;;;0.10;0.10;;;;;;;;;;5043334;28;20281;-74
2022/07/08 07:13:33;;;;;;;0.10;0.10;;;;;;;;;;5053300;28;20542;-73
2022/07/08 07:16:00;;;;;;;0.10;0.10;;;;;;;;;;5042202;28;20274;-74
2022/07/08 07:18:26;;;;;;;0.10;0.10;;;;;;;;;;5053865;28;20408;-74
2022/07/08 07:20:52;;;;;;;0.10;0.10;;;;;;;;;;5041284;28;20613;-74
2022/07/08 07:23:19;;;;;;;0.10;0.10;;;;;;;;;;5054450;28;20275;-74
2022/07/08 07:25:47;;;;;;;0.10;0.10;;;;;;;;;;5040402;28;20306;-74
2022/07/08 07:28:13;;;;;;;0.10;0.10;;;;;;;;;;5055188;28;20230;-73
2022/07/08 07:30:39;;;;;;;0.10;0.10;;;;;;;;;;5039325;28;20437;-73
2022/07/08 07:33:06;;;;;;;0.10;0.10;;;;;;;;;;5055882;28;20342;-76
2022/07/08 07:35:32;;;;;;;0.10;0.10;;;;;;;;;;5038268;28;20243;-71
2022/07/08 07:37:59;;;;;;;0.10;0.10;;;;;;;;;;5056701;28;20243;-76
2022/07/08 07:40:25;;;;;;;0.10;0.10;;;;;;;;;;5037540;28;20579;-74
2022/07/08 07:42:53;;;;;;;0.10;0.10;;;;;;;;;;5057897;28;20390;-73
2022/07/08 07:45:19;;;;;;;0.10;0.10;;;;;;;;;;5036597;28;20249;-74
2022/07/08 07:47:46;;;;;;;0.10;0.10;;;;;;;;;;5058840;28;20265;-73
2022/07/08 07:50:13;;;;;;;0.10;0.10;;;;;;;;;;5035342;28;20273;-73
2022/07/08 07:52:39;;;;;;;0.10;0.10;;;;;;;;;;5058982;28;20202;-74
2022/07/08 07:55:08;;;;;;;0.00;0.00;;;;;;;;;;5036173;28;20207;-74
2022/07/08 07:57:35;;;;;;;0.10;0.10;;;;;;;;;;5059299;28;20286;-76
2022/07/08 08:00:03;;;;;;;0.10;0.10;;;;;;;;;;5044521;28;20217;-74
2022/07/08 08:02:30;;;;;;;0.10;0.10;;;;;;;;;;5049697;28;20256;-74
2022/07/08 08:04:56;;;;;;;0.03;0.03;;;;;;;;;;5044259;28;20208;-78
2022/07/08 08:07:23;;;;;;;0.10;0.10;;;;;;;;;;5050035;28;20236;-76
2022/07/08 08:09:49;;;;;;;0.10;0.10;;;;;;;;;;5044476;28;20235;-76
2022/07/08 08:12:15;;;;;;;0.10;0.10;;;;;;;;;;5049741;28;20259;-74
2022/07/08 08:14:42;;;;;;;0.10;0.10;;;;;;;;;;5044766;28;20234;-75
2022/07/08 08:17:09;;;;;;;0.00;0.00;;;;;;;;;;5049040;28;20242;-77
2022/07/08 08:19:38;;;;;;;0.10;0.10;;;;;;;;;;5044686;28;20514;-76
2022/07/08 08:22:04;;;;;;;0.00;0.00;;;;;;;;;;5047979;28;20240;-75
2022/07/08 08:24:31;;;;;;;0.00;0.00;;;;;;;;;;5045713;28;20205;-77
2022/07/08 08:26:57;;;;;;;0.00;0.00;;;;;;;;;;5047990;28;20289;-75
2022/07/08 08:29:24;;;;;;;0.10;0.10;;;;;;;;;;5045785;28;20497;-77
2022/07/08 08:31:50;;;;;;;0.10;0.10;;;;;;;;;;5047229;28;20241;-77
2022/07/08 08:34:18;;;;;;;0.03;0.03;;;;;;;;;;5046365;28;20204;-76
2022/07/08 08:36:44;;;;;;;0.10;0.10;;;;;;;;;;5046456;28;20260;-75
2022/07/08 08:39:10;;;;;;;0.10;0.10;;;;;;;;;;5046848;28;20375;-75
2022/07/08 08:41:37;;;;;;;0.10;0.10;;;;;;;;;;5044318;28;20259;-78
2022/07/08 08:44:04;;;;;;;0.10;0.10;;;;;;;;;;5048681;28;20232;-75
2022/07/08 08:46:32;;;;;;;0.10;0.10;;;;;;;;;;5043161;28;20252;-78
2022/07/08 08:48:58;;;;;;;0.10;0.10;;;;;;;;;;5049373;28;20281;-74
2022/07/08 08:51:26;;;;;;;0.03;0.03;;;;;;;;;;5043439;28;20240;-75
2022/07/08 08:53:54;;;;;;;0.10;0.10;;;;;;;;;;5049299;28;20250;-75
2022/07/08 08:56:21;;;;;;;0.10;0.10;;;;;;;;;;5042907;28;20259;-77
2022/07/08 08:58:48;;;;;;;0.10;0.10;;;;;;;;;;5049119;28;20241;-74
2022/07/08 09:01:14;;;;;;;0.10;0.10;;;;;;;;;;5040913;28;20239;-78
2022/07/08 09:03:41;;;;;;;0.10;0.10;;;;;;;;;;5050923;28;20207;-72
2022/07/08 09:06:08;;;;;;;0.10;0.10;;;;;;;;;;5041245;28;20242;-75
2022/07/08 09:08:36;;;;;;;0.10;0.10;;;;;;;;;;5049885;28;20237;-73
2022/07/08 09:11:03;;;;;;;0.10;0.10;;;;;;;;;;5040476;28;20451;-74
2022/07/08 09:13:29;;;;;;;0.03;0.03;;;;;;;;;;5050918;28;20272;-74
2022/07/08 09:15:58;;;;;;;0.10;0.10;;;;;;;;;;5039460;28;20237;-75
2022/07/08 09:18:27;;;;;;;0.10;0.10;;;;;;;;;;5052071;28;20228;-73
2022/07/08 09:20:54;;;;;;;0.10;0.10;;;;;;;;;;5038705;28;20341;-74
2022/07/08 09:23:21;;;;;;;0.10;0.10;;;;;;;;;;5052693;28;20211;-73
2022/07/08 09:25:50;;;;;;;0.67;0.67;;;;;;;;;;5037588;28;20253;-74
2022/07/08 09:28:16;;;;;;;0.03;0.03;;;;;;;;;;5053136;28;20227;-74
2022/07/08 09:30:46;;;;;;;0.00;0.00;;;;;;;;;;5037308;28;20303;-75
2022/07/08 09:33:13;;;;;;;0.10;0.10;;;;;;;;;;5053169;28;20410;-76
2022/07/08 09:35:40;;;;;;;0.10;0.10;;;;;;;;;;5037022;28;20249;-79
2022/07/08 09:38:07;;;;;;;0.00;0.00;;;;;;;;;;5053829;28;20228;-73
2022/07/08 09:40:33;;;;;;;0.10;0.10;;;;;;;;;;5036289;28;20515;-74
2022/07/08 09:43:12;;;;;;;0.00;0.00;;;;;;;;;;5054906;28;20208;-73
2022/07/08 09:45:38;;;;;;;0.10;0.10;;;;;;;;;;5036803;28;20244;-74
2022/07/08 09:48:05;;;;;;;0.10;0.10;;;;;;;;;;5053833;28;20284;-74
2022/07/08 09:50:32;;;;;;;0.00;0.00;;;;;;;;;;5036148;28;20247;-74
2022/07/08 09:52:59;;;;;;;0.00;0.00;;;;;;;;;;5054382;28;20212;-74
2022/07/08 09:55:30;;;;;;;0.03;0.03;;;;;;;;;;5035078;28;20262;-75
2022/07/08 09:57:57;;;;;;;0.10;0.10;;;;;;;;;;5054785;28;20251;-74
2022/07/08 10:00:24;;;;;;;0.10;0.10;;;;;;;;;;5034483;28;20595;-74
2022/07/08 10:02:51;;;;;;;0.10;0.10;;;;;;;;;;5055366;28;20211;-76
2022/07/08 10:05:18;;;;;;;0.10;0.10;;;;;;;;;;5033771;28;20281;-74
2022/07/08 10:07:44;;;;;;;0.00;0.00;;;;;;;;;;5056381;28;20517;-72
2022/07/08 10:10:12;;;;;;;0.10;0.10;;;;;;;;;;5032758;28;20198;-75
2022/07/08 10:12:38;;;;;;;0.08;0.08;;;;;;;;;;5057087;28;20381;-73
2022/07/08 10:15:07;;;;;;;0.10;0.10;;;;;;;;;;5042554;28;20406;-74
2022/07/08 10:17:39;;;;;;;0.00;0.00;;;;;;;;;;5046850;28;20240;-75
2022/07/08 10:20:06;;;;;;;0.10;0.10;;;;;;;;;;5037098;28;20386;-74
2022/07/08 10:22:33;;;;;;;0.10;0.10;;;;;;;;;;5061307;28;20240;-75
2022/07/08 10:25:02;;;;;;;0.10;0.10;;;;;;;;;;5045917;28;20231;-74
2022/07/08 10:27:28;;;;;;;0.00;0.00;;;;;;;;;;5051217;28;20304;-74
2022/07/08 10:30:12;;;;;;;0.10;0.10;;;;;;;;;;5046219;28;20217;-74
2022/07/08 10:32:40;;;;;;;0.08;0.08;;;;;;;;;;5039768;28;20207;-74
2022/07/08 10:35:07;;;;;;;0.00;0.00;;;;;;;;;;5046190;28;20306;-73
2022/07/08 10:37:45;;;;;;;0.05;0.05;;;;;;;;;;5061251;28;20286;-74
2022/07/08 10:40:12;;;;;;;0.00;0.00;;;;;;;;;;5036464;28;20215;-74
2022/07/08 10:42:42;;;;;;;0.10;0.10;;;;;;;;;;5060728;28;20195;-73
2022/07/08 10:45:15;;;;;;;0.10;0.10;;;;;;;;;;5037693;28;20346;-74
2022/07/08 10:47:43;;;;;;;0.08;0.08;;;;;;;;;;5060169;28;20228;-72
2022/07/08 10:50:09;;;;;;;0.10;0.10;;;;;;;;;;5036270;28;20212;-73
2022/07/08 10:52:38;;;;;;;0.10;0.10;;;;;;;;;;5060973;28;20220;-73
2022/07/08 10:55:09;;;;;;;0.10;0.10;;;;;;;;;;5045993;28;20380;-74
2022/07/08 10:57:36;;;;;;;0.10;0.10;;;;;;;;;;5034686;28;20215;-73
2022/07/08 11:00:04;;;;;;;0.00;0.00;;;;;;;;;;5045781;28;20212;-74
2022/07/08 11:02:31;;;;;;;0.08;0.08;;;;;;;;;;5034381;28;20294;-73
2022/07/08 11:04:59;;;;;;;0.10;0.10;;;;;;;;;;5045551;28;20275;-72
2022/07/08 11:07:27;;;;;;;0.08;0.08;;;;;;;;;;5050729;28;20263;-73
2022/07/08 11:09:54;;;;;;;0.00;0.00;;;;;;;;;;5045755;28;20210;-74
2022/07/08 11:12:20;;;;;;;0.00;0.00;;;;;;;;;;5050730;28;20235;-74
2022/07/08 11:14:47;;;;;;;0.10;0.10;;;;;;;;;;5045294;28;20250;-74
2022/07/08 11:17:14;;;;;;;0.00;0.00;;;;;;;;;;5050545;28;20243;-74
2022/07/08 11:19:40;;;;;;;0.00;0.00;;;;;;;;;;5045502;28;20249;-74
2022/07/08 11:22:09;;;;;;;0.03;0.03;;;;;;;;;;5050393;28;20249;-73
2022/07/08 11:24:36;;;;;;;0.00;0.00;;;;;;;;;;5045544;28;20242;-75
2022/07/08 11:27:02;;;;;;;0.00;0.00;;;;;;;;;;5050143;28;20247;-76
2022/07/08 11:29:29;;;;;;;0.00;0.00;;;;;;;;;;5045438;28;20241;-74
2022/07/08 11:31:56;;;;;;;0.10;0.10;;;;;;;;;;5048687;28;20246;-76
2022/07/08 11:34:24;;;;;;;0.00;0.00;;;;;;;;;;5046418;28;20323;-77
2022/07/08 11:36:54;;;;;;;0.00;0.00;;;;;;;;;;5048802;28;20321;-76
2022/07/08 11:39:22;;;;;;;0.00;0.00;;;;;;;;;;5046384;28;20215;-75
2022/07/08 11:41:48;;;;;;;0.00;0.00;;;;;;;;;;5048278;28;20490;-74
2022/07/08 11:44:18;;;;;;;0.03;0.03;;;;;;;;;;5046966;28;20272;-75
2022/07/08 11:46:45;;;;;;;0.00;0.00;;;;;;;;;;5047367;28;20246;-74
2022/07/08 11:49:12;;;;;;;0.00;0.00;;;;;;;;;;5047482;28;20303;-74
2022/07/08 11:51:38;;;;;;;0.00;0.00;;;;;;;;;;5046582;28;20246;-75
2022/07/08 11:54:05;;;;;;;0.00;0.00;;;;;;;;;;5048356;28;20239;-74
2022/07/08 11:56:33;;;;;;;0.00;0.00;;;;;;;;;;5045757;28;20241;-73
2022/07/08 11:58:59;;;;;;;0.00;0.00;;;;;;;;;;5048626;28;20446;-74
2022/07/08 12:01:26;;;;;;;0.10;0.10;;;;;;;;;;5044763;28;20260;-74
2022/07/08 12:03:52;;;;;;;0.00;0.00;;;;;;;;;;5049545;28;20218;-73
2022/07/08 12:06:23;;;;;;;0.05;0.05;;;;;;;;;;5043947;28;20499;-74
2022/07/08 12:08:49;;;;;;;0.00;0.00;;;;;;;;;;5049498;28;20214;-73
2022/07/08 12:11:17;;;;;;;0.00;0.00;;;;;;;;;;5043157;28;20239;-74
2022/07/08 12:13:45;;;;;;;0.10;0.10;;;;;;;;;;5050342;28;20514;-73
2022/07/08 12:16:27;;;;;;;0.00;0.00;;;;;;;;;;5042890;28;20245;-74
2022/07/08 12:18:53;;;;;;;0.10;0.10;;;;;;;;;;5048923;28;20195;-73
2022/07/08 12:21:19;;;;;;;0.00;0.00;;;;;;;;;;5043494;28;20296;-73
2022/07/08 12:23:54;;;;;;;0.00;0.00;;;;;;;;;;5050081;28;20509;-74
2022/07/08 12:26:20;;;;;;;0.10;0.10;;;;;;;;;;5042382;28;20310;-74
2022/07/08 12:28:48;;;;;;;0.00;0.00;;;;;;;;;;5050872;28;20279;-73
2022/07/08 12:31:30;;;;;;;0.10;0.10;;;;;;;;;;5042944;28;20239;-74
2022/07/08 12:34:00;;;;;;;0.00;0.00;;;;;;;;;;5048303;28;20206;-73
2022/07/08 12:36:27;;;;;;;0.00;0.00;;;;;;;;;;5044328;28;20287;-74
2022/07/08 12:38:54;;;;;;;0.10;0.10;;;;;;;;;;5048641;28;20235;-72
2022/07/08 12:41:20;;;;;;;0.00;0.00;;;;;;;;;;5043296;28;20238;-70
2022/07/08 12:43:47;;;;;;;0.10;0.10;;;;;;;;;;5048685;28;20557;-69
2022/07/08 12:46:15;;;;;;;0.10;0.10;;;;;;;;;;5042334;28;20310;-70
2022/07/08 12:48:41;;;;;;;0.10;0.10;;;;;;;;;;5050166;28;20206;-71
2022/07/08 12:51:08;;;;;;;0.00;0.00;;;;;;;;;;5041318;28;20239;-70
2022/07/08 12:53:34;;;;;;;0.08;0.08;;;;;;;;;;5050567;28;20466;-71
2022/07/08 12:56:01;;;;;;;0.00;0.00;;;;;;;;;;5040453;28;20575;-70
2022/07/08 12:58:27;;;;;;;0.05;0.05;;;;;;;;;;5051615;28;20280;-70
2022/07/08 13:00:54;;;;;;;0.08;0.08;;;;;;;;;;5039628;28;20249;-71
2022/07/08 13:03:21;;;;;;;0.00;0.00;;;;;;;;;;5052700;28;20458;-71
2022/07/08 13:05:48;;;;;;;0.03;0.03;;;;;;;;;;5038816;28;20265;-72
2022/07/08 13:08:14;;;;;;;0.00;0.00;;;;;;;;;;5052982;28;20239;-71
2022/07/08 13:10:41;;;;;;;0.10;0.10;;;;;;;;;;5037780;28;20485;-72
2022/07/08 13:13:07;;;;;;;0.10;0.10;;;;;;;;;;5053950;28;20210;-70
2022/07/08 13:15:34;;;;;;;0.00;0.00;;;;;;;;;;5037035;28;20576;-73
2022/07/08 13:18:00;;;;;;;0.00;0.00;;;;;;;;;;5054965;28;20234;-72
2022/07/08 13:20:28;;;;;;;0.00;0.00;;;;;;;;;;5036306;28;20255;-79
2022/07/08 13:22:55;;;;;;;0.00;0.00;;;;;;;;;;5055450;28;20235;-76
2022/07/08 13:25:21;;;;;;;0.05;0.05;;;;;;;;;;5035294;28;20237;-76
2022/07/08 13:27:48;;;;;;;0.00;0.00;;;;;;;;;;5056331;28;20195;-76
2022/07/08 13:30:14;;;;;;;0.00;0.00;;;;;;;;;;5034152;28;20243;-76
2022/07/08 13:32:40;;;;;;;0.00;0.00;;;;;;;;;;5057325;28;20191;-76
2022/07/08 13:35:07;;;;;;;0.00;0.00;;;;;;;;;;5034789;28;20205;-76
2022/07/08 13:37:35;;;;;;;0.00;0.00;;;;;;;;;;5058086;28;20219;-76
2022/07/08 13:40:01;;;;;;;0.10;0.10;;;;;;;;;;5043011;28;20217;-75
2022/07/08 13:42:28;;;;;;;0.00;0.00;;;;;;;;;;5047960;28;20423;-78
2022/07/08 13:44:54;;;;;;;0.10;0.10;;;;;;;;;;5042812;28;20418;-76
2022/07/08 13:47:21;;;;;;;0.03;0.03;;;;;;;;;;5047866;28;20441;-77
2022/07/08 13:49:47;;;;;;;0.00;0.00;;;;;;;;;;5042528;28;20492;-78
2022/07/08 13:52:13;;;;;;;0.00;0.00;;;;;;;;;;5047957;28;20368;-80
2022/07/08 13:54:41;;;;;;;0.03;0.03;;;;;;;;;;5042521;28;20211;-79
2022/07/08 13:57:08;;;;;;;0.00;0.00;;;;;;;;;;5048269;28;20483;-77
2022/07/08 13:59:34;;;;;;;0.00;0.00;;;;;;;;;;5042544;28;20269;-78
2022/07/08 14:02:01;;;;;;;0.10;0.10;;;;;;;;;;5047237;28;20239;-76
2022/07/08 14:04:27;;;;;;;0.00;0.00;;;;;;;;;;5043005;28;20376;-78
2022/07/08 14:06:54;;;;;;;0.00;0.00;;;;;;;;;;5046460;28;20320;-77
2022/07/08 14:09:20;;;;;;;0.10;0.10;;;;;;;;;;5043930;28;20271;-76
2022/07/08 14:11:48;;;;;;;0.00;0.00;;;;;;;;;;5045494;28;20302;-75
2022/07/08 14:14:14;;;;;;;0.05;0.05;;;;;;;;;;5045037;28;20228;-77
2022/07/08 14:16:41;;;;;;;0.00;0.00;;;;;;;;;;5044362;28;20272;-78
2022/07/08 14:19:07;;;;;;;0.05;0.05;;;;;;;;;;5045968;28;20436;-73
2022/07/08 14:21:34;;;;;;;0.08;0.08;;;;;;;;;;5043391;28;20436;-72
2022/07/08 14:24:00;;;;;;;0.05;0.05;;;;;;;;;;5046567;28;20274;-72
2022/07/08 14:26:27;;;;;;;0.00;0.00;;;;;;;;;;5042810;28;20248;-74
2022/07/08 14:28:54;;;;;;;0.10;0.10;;;;;;;;;;5047189;28;20399;-74
2022/07/08 14:31:21;;;;;;;0.00;0.00;;;;;;;;;;5042099;28;20306;-79
2022/07/08 14:33:47;;;;;;;0.10;0.10;;;;;;;;;;5048119;28;20223;-79
2022/07/08 14:36:14;;;;;;;0.05;0.05;;;;;;;;;;5040727;28;20334;-78
2022/07/08 14:38:40;;;;;;;0.10;0.10;;;;;;;;;;5048969;28;20240;-77
2022/07/08 14:41:06;;;;;;;0.08;0.08;;;;;;;;;;5039920;28;20254;-76
2022/07/08 14:43:33;;;;;;;0.00;0.00;;;;;;;;;;5049506;28;20260;-77
2022/07/08 14:46:02;;;;;;;0.00;0.00;;;;;;;;;;5038877;28;20270;-77
2022/07/08 14:48:28;;;;;;;0.00;0.00;;;;;;;;;;5050499;28;20373;-77
2022/07/08 14:50:55;;;;;;;0.10;0.10;;;;;;;;;;5038340;28;20269;-77